• Join FlightAware (Why Join?)
  • Login
  • US Flag 
10:20PM EDT


 

Airport Tracker/Info


-or-


 

Live Flight TrackerFlight Track Log ✈ CTL61 ✈ 25-Apr-2013 ✈ KCMH - KBLF

Flight Track Log - Related Links

Times and Time Zones

All times are in EDT time to prevent confusion due to time zone crossing. See the CTL61 flight status page for this flight to view local times or setup timezone preferences in your user account.

Time Position Orientation Groundspeed Altitude Reporting Facility
EDT Latitude Longitude Course Direction KTS MPH feet Rate Location/Type
09:02PM 39.9950 -82.8958 195° South 99 114 1,200  Level Indianapolis Center
09:04PM 39.9608 -82.9081 195° South 133 153 2,600 1,200 Climbing Indianapolis Center
09:05PM 39.9239 -82.8958 166° South 147 169 3,800 1,140 Climbing Indianapolis Center
09:06PM 39.8900 -82.8703 150° Southeast 141 162 5,000 1,140 Climbing Indianapolis Center
09:07PM 39.8539 -82.8472 154° Southeast 130 150 6,200 1,080 Climbing Indianapolis Center
09:08PM 39.8236 -82.8278 154° Southeast 128 147 7,300 840 Climbing Indianapolis Center
09:09PM 39.7839 -82.8011 153° Southeast 128 147 8,200 720 Climbing Indianapolis Center
09:10PM 39.7578 -82.7856 155° Southeast 136 157 8,800 420 Climbing Indianapolis Center
09:11PM 39.7194 -82.7586 152° Southeast 154 177 9,100 60 Climbing Indianapolis Center
09:11PM 39.7036 -82.7489 155° Southeast 170 196 8,900  Descending Indianapolis Center
09:12PM 39.6739 -82.7294 153° Southeast 178 205 9,100 60 Climbing Indianapolis Center
09:12PM 39.6514 -82.7161 155° Southeast 186 214 9,000 -120 Descending Indianapolis Center
09:13PM 39.6286 -82.6981 149° Southeast 182 209 9,000  Level Indianapolis Center
09:14PM 39.5828 -82.6644 151° Southeast 188 216 9,000  Level Indianapolis Center
09:15PM 39.5372 -82.6319 151° Southeast 185 213 9,000  Level Indianapolis Center
09:16PM 39.4922 -82.6008 152° Southeast 183 211 9,000  Level Indianapolis Center
09:17PM 39.4472 -82.5719 154° Southeast 179 206 9,000  Level Indianapolis Center
09:18PM 39.3964 -82.5389 153° Southeast 175 201 9,100  Climbing Indianapolis Center
09:19PM 39.3542 -82.5100 152° Southeast 171 197 9,100 300 Level Indianapolis Center
09:20PM 39.3125 -82.4839 154° Southeast 167 192 9,800 480 Climbing Indianapolis Center
09:21PM 39.2736 -82.4622 157° South 154 177 10,100 120 Climbing Indianapolis Center
09:22PM 39.2294 -82.4336 153° Southeast 172 198 10,100 -300 Level Indianapolis Center
09:23PM 39.1825 -82.4019 152° Southeast 184 212 9,600 -720 Descending Indianapolis Center
09:24PM 39.1292 -82.3675 153° Southeast 206 237 8,700 -840 Descending Indianapolis Center
09:25PM 39.0742 -82.3325 154° Southeast 219 252 7,900 -840 Descending Indianapolis Center
09:26PM 39.0208 -82.2972 153° Southeast 217 250 7,000 -480 Descending Indianapolis Center
09:27PM 38.9711 -82.2653 153° Southeast 201 231 7,000  Level Indianapolis Center
09:28PM 38.9253 -82.2344 152° Southeast 187 215 7,000  Level Indianapolis Center
09:29PM 38.8800 -82.2033 152° Southeast 186 214 7,000  Level Indianapolis Center
09:30PM 38.8233 -82.1728 157° South 183 211 7,000  Level Indianapolis Center
09:31PM 38.7772 -82.1403 151° Southeast 189 217 7,000  Level Indianapolis Center
09:32PM 38.7314 -82.1086 152° Southeast 187 215 7,000  Level Indianapolis Center
09:33PM 38.6861 -82.0783 152° Southeast 184 212 7,000  Level Indianapolis Center
09:34PM 38.6397 -82.0494 154° Southeast 185 213 7,000  Level Indianapolis Center
09:35PM 38.5936 -82.0197 153° Southeast 185 213 7,000  Level Indianapolis Center
09:36PM 38.5472 -81.9908 154° Southeast 186 214 7,000  Level Indianapolis Center
09:37PM 38.5017 -81.9617 153° Southeast 184 212 7,000  Level Indianapolis Center
09:38PM 38.4567 -81.9325 153° Southeast 183 211 7,000  Level Indianapolis Center
09:39PM 38.4025 -81.8983 154° Southeast 181 208 7,000  Level Indianapolis Center
09:40PM 38.3589 -81.8711 154° Southeast 178 205 7,000  Level Indianapolis Center
09:41PM 38.3161 -81.8447 154° Southeast 174 200 7,000  Level Indianapolis Center
09:42PM 38.2733 -81.8175 153° Southeast 171 197 7,000  Level Indianapolis Center
09:43PM 38.2303 -81.7903 154° Southeast 173 199 7,000  Level Indianapolis Center
09:44PM 38.1878 -81.7628 153° Southeast 172 198 7,000  Level Indianapolis Center
09:45PM 38.1442 -81.7369 155° Southeast 172 198 7,000  Level Indianapolis Center
09:47PM 38.1008 -81.7092 153° Southeast 174 200 7,000  Level Indianapolis Center
09:48PM 38.0572 -81.6811 153° Southeast 175 201 7,000  Level Indianapolis Center
09:49PM 38.0050 -81.6494 154° Southeast 173 199 7,000  Level Indianapolis Center
09:50PM 37.9606 -81.6219 154° Southeast 176 203 7,000  Level Indianapolis Center
09:51PM 37.9167 -81.5942 153° Southeast 177 204 7,000  Level Indianapolis Center
09:52PM 37.8717 -81.5644 152° Southeast 180 207 7,000  Level Indianapolis Center
09:53PM 37.8272 -81.5369 154° Southeast 177 204 7,000  Level Indianapolis Center
09:54PM 37.7825 -81.5050 151° Southeast 181 208 7,000  Level Indianapolis Center
09:55PM 37.7403 -81.4767 152° Southeast 182 209 7,000  Level Indianapolis Center
09:56PM 37.6994 -81.4400 145° Southeast 183 211 7,100 60 Climbing Indianapolis Center